Aérodrome :
LOGIN :

S'inscrire | Disclaimer

   EN    FR    IT 

 










Légende :    VFR   VFR Marginal   IFR   IFR Intensif   IFR Très Intensif
Visi : 
Plafond : 
>= 8 km
>= 3000ft
5 à 8 km
1000 à 3000 ft
1500m à 5 km
500 à 1000 ft
800 à 1500m
200 à 500 ft
< 800m
< 200 ft
Symboles :   Orages  Brouillard  Fortes neiges  Fortes précipitations  Vent > 20 kt
SIGMETs :   Divers  Orages  Givrage  Turbulence  Onde Orograph.  Cendres Volcan.






- Altitude de l'aérodrome : 53 ft
- Code IATA : HAM


EDDH - Hamburg

DERNIER METAR :
  • 090720Z 04006KT 010V070 CAVOK 25/17 Q1020 NOSIG

METARs EXPIRÉS :
  • 090650Z 05006KT 020V080 CAVOK 24/17 Q1020 NOSIG
  • 090620Z 03003KT 330V080 CAVOK 23/16 Q1020 NOSIG
  • 090550Z 05004KT 010V080 CAVOK 22/16 Q1020 NOSIG
  • 090520Z 33003KT 300V090 CAVOK 21/16 Q1020 NOSIG
  • 090450Z VRB02KT CAVOK 20/16 Q1020 NOSIG

TAF TAF EDDH
Valide du 09 à 06h jusqu'au 10 à 12h UTC


090500Z 0906/1012 02004KT CAVOK
BECMG 0908/0910 04009KT
BECMG 0918/0921 03004KT
BECMG 1009/1012 08009KT



MET'MAP, la Météo Aéronautique d'un coup d'oeil ! - Copyright ORBIFLY Décembre 2007 - Disclaimer

ORBIFLY MET'MAP TEAM :

Programmation & Développement : Alexandra Zaïnal
Sur une idée originale de : Baudouin d'Aumeries
Assistance à la programmation : Marc-Olivier Méhu
Soutien technique & logistique : Manuel Goepfert

Contact : metmap@orbifly.com




SOURCES & CREDITS :

   NOAA